Taylor, WI (54659)

5:15 PM CDT on July 29, 2016 (GMT -0500)
Black River Falls Area | | Change Station

Elev 837 ft 44.25 °N, 90.86 °W | Updated 20 minutes ago

Overcast
Overcast
75 °F
Feels Like 75 °F
N
6
Wind Variable Wind from ENE

Today
High -- | Low -- °F
--% Chance of Precip.
Yesterday
High -- | Low -- °F
Precip. -- in
Pressure 30.00 in
Visibility 10.0 miles
Clouds Scattered Clouds 7000 ft
Mostly Cloudy 7500 ft
Overcast 12000 ft
Dew Point 63 °F
Humidity 68%
Rainfall 0.00 in
Snow Depth Not available.
5:48 AM 8:32 PM
Waning Crescent, 18% visible
METAR KBCK 292155Z AUTO 07005KT 10SM SCT070 BKN075 OVC120 24/17 A3000 RMK AO2 T02370174
Pressure 30.00 in
Visibility 10.0 miles
Clouds Scattered Clouds 7000 ft
Mostly Cloudy 7500 ft
Overcast 12000 ft
Dew Point 63 °F
Humidity 68%
Rainfall 0.00 in
Snow Depth Not available.
5:48 AM 8:32 PM
Waning Crescent, 18% visible
METAR KBCK 292155Z AUTO 07005KT 10SM SCT070 BKN075 OVC120 24/17 A3000 RMK AO2 T02370174

10-Day Weather Forecast

Almanac

Astronomy

Jul. 29, 2016 Rise Set
Actual Time
Civil Twilight
Nautical Twilight
Astronomical Twilight
Moon
Length of Visible Light
Length of Day
Tomorrow will be .
, % of the Moon is Illuminated

Today's Extremes

State Highs State Lows

Community

WunderPhotos

Upload Photos

1,928,429 photos uploaded!

WunderBlog® & News

Nearby

Air Quality

  Air Quality AQ Index Pollutant
Not available.

Snow Depth

Station Depth Elevation

Earthquake Activity

City Distance Mag. Time & Date
Minimum magnitude displayed is 2.5.

Coastal Water Temperatures

Place Temperature

Stations

Nearby Weather Stations

Station Location Temp. Windchill Dew Point Humidity Wind Precip. Elev Updated Type
                   

Watches & Warnings

There are currently no watches in effect.